Fairview Valley, Nevada Weather observations

Data are for observation ending at time listed.
 Day   Time    Ave.   Ave.  Ave.  Vector   Max.   Stn.    Total    Solar   Ave.   Ave.    #1       #2
  of    of     Air    Rel.  Wind   Wind    Wind   Baro.  Precip.   Rad.    Soil   Vis.   Cloud   Cloud
Year   Day     Temp.  Hum.  Speed  Dir.    Gust   Pres.                    Temp.          Ceil    Ceil
2015   (PST)    F      %     mph   deg.    mph     mb.     in.     W/m2     F     (km)   k ft.   k ft.
------------------------------------------------------------------------------------------------------
 114    0:00   54.1    48    2.6   147      6.4    863     0.00       0    65.6   999.0    7.5  999.0
 114    0:10   53.9    49    5.9   116      9.5    863     0.00       0    65.5   999.0    5.6  999.0
 114    0:20   53.8    50    3.2   116      6.6    863     0.00       0    65.4   999.0    5.6  999.0
 114    0:30   54.0    50    3.5   256     10.4    863     0.00       0    65.3   999.0    5.4  999.0
 114    0:40   53.6    63    8.0   199     13.6    863     0.01       0    65.2   999.0    3.2  999.0
 114    0:50   52.1    70    7.5   168     10.6    863     0.00       0    65.1   999.0    6.2  999.0
 114    1:00   51.6    74    4.2   158      6.4    863     0.00       0    65.0   999.0    6.0  999.0
 114    1:10   51.7    72    4.2   179      5.3    863     0.00       0    64.8   999.0    5.8  999.0
 114    1:20   52.3    72    4.6   230      8.2    863     0.00       0    64.8   999.0    5.4  999.0
 114    1:30   52.2    68   15.8   293     30.5    863     0.00       0    64.7   999.0    5.3  999.0
 114    1:40   50.5    72   19.0   303     25.5    863     0.00       0    64.6   999.0    5.2  999.0
 114    1:50   49.5    77   18.0   303     23.5    863     0.00       0    64.5   999.0    6.3  999.0
 114    2:00   49.5    78   14.3   296     18.0    863     0.00       0    64.4   999.0    6.5  999.0
 114    2:10   49.6    78   12.2   292     16.7    864     0.01       0    64.3   999.0    3.1  999.0
 114    2:20   48.9    82    5.9   298      9.3    863     0.00       0    64.2   999.0    5.8  999.0
 114    2:30   49.0    81   12.2   289     25.2    864     0.01       0    64.1   999.0    6.3  999.0
 114    2:40   49.0    80   17.6   294     25.9    864     0.00       0    64.0   999.0    4.0  999.0
 114    2:50   48.7    80    9.0   274     15.5    864     0.00       0    63.9   999.0    3.6  999.0
 114    3:00   48.5    76   11.2   287     17.2    864     0.00       0    63.8   999.0    4.7  999.0
 114    3:10   48.1    74   13.6   290     19.3    864     0.00       0    63.7   999.0    7.6  999.0
 114    3:20   47.8    75   12.0   281     17.9    864     0.00       0    63.6   999.0   13.5  999.0
 114    3:30   47.8    73   12.8   285     20.9    864     0.00       0    63.5   999.0   13.1  999.0
 114    3:40   47.7    73   10.7   278     14.8    864     0.00       0    63.4   999.0    2.5  999.0
 114    3:50   47.6    73   10.5   279     14.4    864     0.00       0    63.3   999.0    5.8  999.0
 114    4:00   47.7    72   10.3   280     13.8    864     0.00       0    63.2   999.0    9.5  999.0
 114    4:10   48.1    70    9.8   283     14.3    864     0.00       0    63.0   999.0    4.9  999.0
 114    4:20   47.4    73    4.5   246      6.5    864     0.00       0    62.9   999.0   11.8  999.0
 114    4:30   47.0    75    4.3   196      6.1    864     0.00       0    62.8   999.0    7.3  999.0
 114    4:40   32.0     9   26.0   114    250.0    999    15.49       0    48.7     5.5    0.0  999.0
 114    4:50   47.6    73    5.2   184      7.4    864     0.00       0    62.6   999.0    7.6  999.0
 114    5:00   47.4    75    4.3   189      5.3    864     0.00       0    62.5   999.0    9.0  999.0
 114    5:10   46.9    78    2.7   171      4.2    864     0.00       3    62.4   999.0    9.0  999.0
 114    5:20   46.6    79    3.2   163      4.0    864     0.00       6    62.3   999.0    7.7  999.0
 114    5:30  237.2   350    2.1   184      3.6    677    10.52      10   534.9     8.7   72.8  999.0
 114    5:40  999.0   999  999.0   999    999.0    999    999.00     999   999.0   999.0  999.0  999.0
 114    5:50   47.0    79    2.2   190      4.2    864     0.00       5    61.9   999.0    5.4  999.0
 114    6:00   46.7    82    0.0     0      0.0    864     0.00       8    61.8   999.0    6.7  999.0
 114    6:10   46.4    83    0.0     0      0.0    864     0.00       9    61.7   999.0    5.5  999.0
 114    6:20   46.5    83    1.0   165      3.1    864     0.00       9    61.6   999.0    1.6  999.0
 114    6:30   46.5    85    3.3   134      4.2    864     0.00      13    61.5   999.0    5.5  999.0
 114    6:40   46.3    85    2.0   143      3.0    864     0.00      17    61.4   999.0    4.3  999.0
 114    6:50   46.5    86    0.8   157      2.8    864     0.01      58    61.4   999.0    2.4  999.0
 114    7:00   47.0    84    2.3   176      3.5    864     0.00     105    61.3   999.0    1.5  999.0
 114    7:10   48.2    82    2.2   193      3.6    864     0.00     287    61.2   999.0    1.0  999.0
 114    7:20   50.2    76    3.3   177      4.7    864     0.00     429    61.0   999.0    0.7  999.0
 114    7:30   51.0    72    3.7   203      5.8    864     0.00     237    60.9   999.0    3.0  999.0
 114    7:40   50.3    71    4.3   206      6.8    864     0.00     155    60.8   999.0    3.7  999.0
 114    7:50   50.6    70    5.2   187      7.2    864     0.00     196    60.8   999.0    2.9  999.0
 114    8:00   50.7    68    5.4   203      7.9    865     0.00     241    60.8   999.0    0.4  999.0
 114    8:10   51.5    67    4.8   229      8.1    865     0.00     464    60.7   999.0    0.0  999.0
 114    8:20   52.2    66    6.0   231     12.0    865     0.00     341    60.6   999.0    0.3  999.0
 114    8:30   52.0    66    6.4   244      9.5    865     0.00     311    60.6   999.0    2.3  999.0
 114    8:40   51.9    64    4.4   266      7.7    865     0.00     188    60.5   999.0    3.7  999.0
 114    8:50   51.8    64    6.0   262     12.0    865     0.00     224    60.5   999.0    3.4  999.0
 114    9:00   51.9    62   10.3   306     16.8    865     0.00     175    60.4   999.0    3.8  999.0
 114    9:10   51.6    61   11.9   294     14.9    865     0.00     196    60.4   999.0    3.4  999.0
 114    9:20   51.2    60   12.9   307     17.5    865     0.00     163    60.4   999.0    3.4  999.0
 114    9:30   50.4    65   10.0   297     15.1    865     0.00     134    60.4   999.0    4.5  999.0
 114    9:40   50.6    62    3.9   297      6.6    865     0.00     221    60.4   999.0    4.8  999.0
 114    9:50   51.4    61    3.3   263      6.6    865     0.00     379    60.3   999.0    3.7  999.0
 114   10:00   52.2    59    3.8   283      9.3    865     0.00     332    60.3   999.0    3.5  999.0
 114   10:10   53.7    56    8.0   279     12.3    865     0.00     622    60.3   999.0    3.2  999.0
 114   10:20   54.0    55    8.3   274     12.8    865     0.00     457    60.3   999.0    3.4  999.0
 114   10:30   54.5    55    9.1   281     14.8    865     0.00     331    60.3   999.0    3.8  999.0
 114   10:40   53.7    55   11.7   275     16.9    865     0.00     195    60.3   999.0    4.1  999.0
 114   10:50   53.2    57   11.5   300     15.4    865     0.00     355    60.2   999.0    3.3  999.0
 114   11:00   53.9    53    9.9   282     15.3    865     0.00     357    60.2   999.0    2.7  999.0
 114   11:10   54.3    51   10.1   264     17.5    865     0.00     385    60.2   999.0    0.4  999.0
 114   11:20   54.4    49   10.4   281     17.1    865     0.00     272    60.2   999.0    3.2  999.0
 114   11:30   54.1    51    9.2   272     15.0    865     0.00     128    60.2   999.0    4.9  999.0
 114   11:40   53.8    47   13.8   299     21.4    865     0.00     150    60.2   999.0    4.6  999.0
 114   11:50   53.8    47   12.6   299     18.0    865     0.00     298    60.2   999.0    1.3  999.0
 114   12:00   54.2    45    9.9   297     12.4    865     0.00     378    60.2   999.0    1.9  999.0
 114   12:10   54.6    45    6.1   291     10.5    865     0.00     400    60.3   999.0    3.5  999.0
 114   12:20   54.9    44    5.1   262      9.7    865     0.00     434    60.3   999.0    2.9  999.0
 114   12:30   55.3    44    5.2   260     10.2    865     0.00     372    60.3   999.0    4.3  999.0
 114   12:40   55.8    43    3.9   256      8.5    865     0.00     391    60.3   999.0    5.1  999.0
 114   12:50   56.1    43    8.5   254     15.0    865     0.00     337    60.3   999.0    3.6  999.0
 114   13:00   55.7    42    7.5   245     14.3    865     0.00     169    60.4   999.0    5.4  999.0
 114   13:10   55.7    42    4.9   232      8.9    865     0.00     184    60.4   999.0    5.6  999.0
 114   13:20   56.3    42    7.3   229     16.8    864     0.00     394    60.4   999.0    4.8  999.0
 114   13:30   59.0    30   19.1   283     27.0    864     0.00     668    60.4   999.0    3.6  999.0
 114   13:40   59.9    25   18.4   277     26.6    864     0.00     631    60.4   999.0    0.3  999.0
 114   13:50   59.1    32   17.1   298     22.6    864     0.00     468    60.5   999.0    0.0  999.0
 114   14:00   59.2    31   18.4   296     28.1    864     0.00     596    60.6   999.0    0.8  999.0
 114   14:10   58.9    33   16.4   298     26.2    864     0.00     503    60.7   999.0    1.5  999.0
 114   14:20   58.0    34   14.9   295     21.1    864     0.00     441    60.7   999.0    6.6  999.0
 114   14:30   59.5    31   12.5   274     21.0    864     0.00     440    60.8   999.0    6.1  999.0
 114   14:40   59.4    29   13.8   294     23.4    864     0.00     573    60.8   999.0    3.5  999.0
 114   14:50   58.1    32   13.3   296     17.9    864     0.00     226    60.9   999.0    4.6  999.0
 114   15:00   57.7    31   13.7   296     20.2    864     0.00     182    60.9   999.0    5.9  999.0
 114   15:10   57.9    29   14.6   300     19.6    864     0.00     153    61.0   999.0    4.7  999.0
 114   15:20   58.4    27   12.8   293     21.5    864     0.00     163    61.1   999.0    3.7  999.0
 114   15:30   58.3    26   16.0   288     27.7    864     0.00     163    61.2   999.0    3.9  999.0
 114   15:40   58.2    28   14.5   281     31.9    864     0.00     248    61.2   999.0    1.7  999.0
 114   15:50   59.0    28   12.9   296     18.9    864     0.00     380    61.2   999.0    2.9  999.0
 114   16:00   59.3    27   15.2   276     21.3    864     0.00     279    61.3   999.0    6.1  999.0
 114   16:10   59.5    27   14.8   293     27.2    864     0.00     397    61.4   999.0    2.5  999.0
 114   16:20   59.5    28   13.3   290     20.5    864     0.00     261    61.4   999.0    5.0  999.0
 114   16:30   59.3    29   16.2   291     24.0    864     0.00     174    61.5   999.0    6.1  999.0
 114   16:40   58.7    29   18.3   280     25.9    864     0.00      81    61.6   999.0    7.0  999.0
 114   16:50   58.2    30   18.2   290     23.6    864     0.00      81    61.6   999.0    7.1  999.0
 114   17:00   58.1    30   18.4   286     25.2    864     0.00      85    61.6   999.0    7.2  999.0
 114   17:10   58.0    30   18.7   285     26.2    864     0.00      81    61.7   999.0    7.0  999.0
 114   17:20   57.7    29   21.2   286     27.4    864     0.00      97    61.7   999.0    7.5  999.0
 114   17:30   57.3    30   20.2   285     27.6    864     0.00      96    61.8   999.0    7.4  999.0
 114   17:40   56.8    29   21.9   276     29.5    864     0.00      61    61.8   999.0    7.1  999.0
 114   17:50   56.5    30   17.2   280     22.5    864     0.00      50    61.9   999.0    6.1  999.0
 114   18:00   56.0    31   17.4   280     23.1    864     0.00      37    61.9   999.0    4.9  999.0
 114   18:10   55.5    31   18.7   278     25.1    865     0.00      24    61.9   999.0    1.9  999.0
 114   18:20   55.1    32   19.4   274     26.4    865     0.00      22    61.9   999.0    0.0  999.0
 114   18:30   54.7    32   16.1   276     23.5    865     0.00       9    62.0   999.0    0.0  999.0
 114   18:40   54.2    32   14.2   279     20.2    865     0.00       2    61.9   999.0    0.0  999.0
 114   18:50   54.1    31   17.9   275     24.9    865     0.00       1    61.9   999.0    0.0  999.0
 114   19:00   53.8    31   16.4   274     21.9    865     0.00       0    61.9   999.0    0.8  999.0
 114   19:10   53.4    32   19.2   277     25.9    865     0.00       0    61.9   999.0    3.8  999.0
 114   19:20   52.9    32   18.1   278     25.0    865     0.00       0    61.9   999.0    0.0  999.0
 114   19:30   52.5    33   15.0   277     20.2    866     0.00       0    61.8   999.0    0.4  999.0
 114   19:40   52.3    34   12.5   279     17.8    866     0.00       0    61.8   999.0    3.7  999.0
 114   19:50   52.5    34   13.7   282     19.6    866     0.00       0    61.8   999.0    8.6  999.0
 114   20:00   52.4    34   10.8   288     15.5    866     0.00       0    61.7   999.0    8.7  999.0
 114   20:10   52.4    34   10.6   290     14.8    866     0.00       0    61.7   999.0    8.1  999.0
 114   20:20   52.2    35    9.5   298     14.3    866     0.00       0    61.6   999.0   10.1  999.0
 114   20:30   51.8    37   11.0   299     15.4    866     0.00       0    61.5   999.0    6.1  999.0
 114   20:40   51.6    38    9.9   299     13.4    866     0.00       0    61.5   999.0    9.8  999.0
 114   20:50   51.2    39    8.3   302     10.7    866     0.00       0    61.4   999.0    8.0  999.0
 114   21:00   51.0    40    8.0   304     12.2    866     0.00       0    61.4   999.0    9.0  999.0
 114   21:10   50.9    40    7.3   308     10.4    866     0.00       0    61.3   999.0    3.7  999.0
 114   21:20   50.5    41    6.3   289      8.9    866     0.00       0    61.2   999.0    8.6  999.0
 114   21:30   49.8    43    5.1   219      6.8    866     0.00       0    61.2   999.0    8.5  999.0
 114   21:40   49.6    44    4.2   208      6.6    866     0.00       0    61.1   999.0    6.7  999.0
 114   21:50   49.8    42    0.4   244      1.7    866     0.00       0    61.0   999.0    7.9  999.0
 114   22:00   50.0    42    1.5   236      3.4    866     0.00       0    60.9   999.0    8.2  999.0
 114   22:10   49.6    42    3.9   262      4.8    866     0.00       0    60.9   999.0    3.2  999.0
 114   22:20   48.4    45    5.6   273      7.5    866     0.00       0    60.8   999.0    3.0  999.0
 114   22:30   48.0    45    6.0   274      7.1    866     0.00       0    60.7   999.0    9.2  999.0
 114   22:40   47.6    46    4.1   277      7.5    866     0.00       0    60.6   999.0    9.7  999.0

Return to Fairview Valley graphs page.


Western Regional Climate Center,wrcc@dri.edu